PHX weather

Phoenix Sky Harbor International Airport
Phoenix, Arizona, United States

Public forecast

Using degrees Fahrenheit for public forecast. Weather courtesy of forecast.io.

METAR (pilot weather report)

Retrieved 2017/03/29 08:51 UTC (16 minutes ago):

KPHX 290851Z 23006KT 10SM SCT250 17/M01 A2989

TAF (pilot weather forecast)

Retrieved 2017/03/29 06:24 UTC (3 hours ago):

TAF KPHX 290520Z 2906/3006 29011KT P6SM FEW100 FEW250 FM291000 VRB04KT P6SM SKC FM291600 04009KT P6SM SKC FM292100 31010G17KT P6SM SKC FM300300 27006KT P6SM SKC